createdAt,value
2018-10-16T00:00:18.849Z,17.38
2018-10-16T00:02:43.259Z,17.36
2018-10-16T00:05:07.216Z,17.09
2018-10-16T00:07:31.139Z,17.16
2018-10-16T00:09:55.023Z,17.04
2018-10-16T00:12:18.953Z,17.08
2018-10-16T00:14:42.837Z,17.26
2018-10-16T00:17:06.743Z,17.28
2018-10-16T00:19:30.768Z,17.22
2018-10-16T00:21:54.991Z,17.22
2018-10-16T00:24:18.885Z,17.34
2018-10-16T00:26:42.834Z,17.29
2018-10-16T00:29:06.701Z,17.28
2018-10-16T00:31:30.567Z,17.44
2018-10-16T00:33:54.463Z,17.48
2018-10-16T00:36:18.351Z,17.48
2018-10-16T00:38:42.480Z,17.35
2018-10-16T00:41:06.855Z,17.43
2018-10-16T00:43:30.748Z,17.43
2018-10-16T00:45:54.671Z,17.42
2018-10-16T00:48:18.555Z,17.21
2018-10-16T00:50:42.742Z,17.21
2018-10-16T00:53:06.622Z,17.18
2018-10-16T00:55:30.477Z,16.90
2018-10-16T00:57:54.368Z,17.07
2018-10-16T01:00:18.282Z,17.03
2018-10-16T01:02:43.280Z,16.89
2018-10-16T01:05:07.663Z,17.01
2018-10-16T01:07:31.536Z,16.94
2018-10-16T01:09:55.459Z,16.83
2018-10-16T01:12:19.336Z,16.71
2018-10-16T01:14:43.236Z,16.56
2018-10-16T01:17:07.121Z,16.52
2018-10-16T01:19:31.005Z,16.43
2018-10-16T01:21:54.887Z,16.52
2018-10-16T01:24:18.760Z,16.50
2018-10-16T01:26:42.921Z,15.60
2018-10-16T01:29:06.809Z,16.08
2018-10-16T01:31:30.691Z,16.03
2018-10-16T01:33:54.595Z,16.08
2018-10-16T01:36:18.476Z,16.22
2018-10-16T01:38:42.423Z,15.74
2018-10-16T01:41:06.587Z,15.97
2018-10-16T01:43:30.790Z,15.91
2018-10-16T01:45:54.666Z,15.90
2018-10-16T01:48:18.529Z,15.91
2018-10-16T01:50:42.689Z,15.62
2018-10-16T01:53:06.576Z,15.85
2018-10-16T01:55:30.444Z,15.89
2018-10-16T01:57:54.356Z,15.55
2018-10-16T02:00:18.241Z,15.61
2018-10-16T02:02:42.240Z,15.55
2018-10-16T02:05:06.676Z,15.50
2018-10-16T02:07:30.569Z,15.31
2018-10-16T02:09:54.496Z,15.48
2018-10-16T02:12:18.369Z,15.34
2018-10-16T02:14:42.270Z,14.84
2018-10-16T02:17:06.618Z,15.08
2018-10-16T02:19:30.541Z,15.23
2018-10-16T02:21:54.436Z,15.06
2018-10-16T02:24:18.350Z,15.07
2018-10-16T02:26:42.330Z,15.14
2018-10-16T02:29:06.674Z,15.15
2018-10-16T02:31:30.558Z,14.87
2018-10-16T02:33:54.448Z,14.89
2018-10-16T02:36:18.340Z,15.16
2018-10-16T02:38:44.563Z,14.90
2018-10-16T02:41:08.441Z,14.86
2018-10-16T02:43:32.325Z,14.92
2018-10-16T02:45:56.211Z,14.78
2018-10-16T02:48:20.070Z,14.71
2018-10-16T02:50:43.952Z,14.81
2018-10-16T02:53:07.837Z,14.90
2018-10-16T02:55:31.683Z,15.02
2018-10-16T02:57:55.579Z,14.80
2018-10-16T03:00:19.445Z,14.56
2018-10-16T03:02:43.441Z,14.30
2018-10-16T03:05:07.464Z,14.84
2018-10-16T03:07:31.351Z,14.94
2018-10-16T03:09:56.448Z,14.75
2018-10-16T03:12:20.298Z,14.51
2018-10-16T03:14:44.152Z,14.15
2018-10-16T03:17:08.103Z,14.10
2018-10-16T03:19:31.956Z,14.58
2018-10-16T03:21:55.830Z,14.63
2018-10-16T03:24:19.673Z,14.73
2018-10-16T03:26:43.526Z,14.61
2018-10-16T03:29:07.936Z,14.67
2018-10-16T03:31:31.818Z,14.48
2018-10-16T03:33:55.685Z,14.54
2018-10-16T03:36:19.573Z,14.50
2018-10-16T03:38:43.428Z,14.25
2018-10-16T03:41:07.391Z,14.53
2018-10-16T03:43:31.264Z,14.68
2018-10-16T03:45:55.174Z,14.78
2018-10-16T03:48:19.060Z,14.78
2018-10-16T03:50:42.921Z,14.63
2018-10-16T03:53:06.981Z,14.48
2018-10-16T03:55:37.390Z,14.56
2018-10-16T03:58:01.579Z,14.51
2018-10-16T04:00:25.454Z,14.45
2018-10-16T04:02:49.374Z,14.60
2018-10-16T04:05:13.281Z,14.73
2018-10-16T04:07:37.334Z,14.76
2018-10-16T04:10:01.400Z,14.66
2018-10-16T04:12:25.277Z,14.74
2018-10-16T04:14:49.154Z,14.61
2018-10-16T04:17:13.045Z,14.45
2018-10-16T04:19:37.013Z,14.18
2018-10-16T04:22:00.947Z,14.21
2018-10-16T04:24:24.900Z,14.41
2018-10-16T04:26:48.772Z,14.56
2018-10-16T04:29:13.010Z,14.24
2018-10-16T04:31:36.865Z,14.51
2018-10-16T04:34:00.848Z,14.47
2018-10-16T04:36:24.690Z,14.11
2018-10-16T04:38:48.622Z,14.24
2018-10-16T04:41:12.524Z,14.37
2018-10-16T04:43:36.470Z,14.23
2018-10-16T04:46:00.367Z,14.28
2018-10-16T04:48:24.425Z,14.21
2018-10-16T04:50:48.289Z,14.10
2018-10-16T04:53:12.207Z,14.21
2018-10-16T04:55:36.074Z,14.29
2018-10-16T04:57:59.951Z,14.34
2018-10-16T05:00:23.878Z,14.48
2018-10-16T05:02:47.813Z,14.29
2018-10-16T05:05:18.628Z,14.19
2018-10-16T05:07:42.584Z,14.20
2018-10-16T05:10:06.909Z,14.02
2018-10-16T05:12:30.763Z,14.22
2018-10-16T05:14:54.682Z,14.13
2018-10-16T05:17:18.572Z,13.54
2018-10-16T05:19:42.449Z,13.53
2018-10-16T05:22:06.372Z,13.73
2018-10-16T05:24:30.280Z,13.66
2018-10-16T05:29:24.138Z,13.31
2018-10-16T05:31:48.033Z,13.80
2018-10-16T05:34:11.954Z,13.82
2018-10-16T05:36:35.851Z,13.83
2018-10-16T05:38:59.796Z,13.91
2018-10-16T05:41:23.720Z,13.94
2018-10-16T05:43:47.597Z,13.91
2018-10-16T05:46:11.549Z,14.12
2018-10-16T05:48:35.420Z,13.95
2018-10-16T05:51:05.586Z,14.00
2018-10-16T05:53:29.459Z,14.03
2018-10-16T05:56:04.509Z,14.12
2018-10-16T05:58:28.421Z,13.86
2018-10-16T06:00:52.292Z,13.90
2018-10-16T06:03:16.180Z,14.13
2018-10-16T06:05:40.161Z,14.02
2018-10-16T06:08:04.014Z,14.11
2018-10-16T06:10:28.012Z,14.22
2018-10-16T06:12:51.925Z,14.08
2018-10-16T06:15:15.812Z,13.94
2018-10-16T06:17:39.689Z,13.91
2018-10-16T06:20:03.584Z,13.95
2018-10-16T06:22:27.516Z,13.80
2018-10-16T06:24:51.386Z,13.80
2018-10-16T06:27:15.336Z,13.87
2018-10-16T06:29:39.210Z,13.86
2018-10-16T06:32:03.091Z,13.88
2018-10-16T06:34:27.003Z,14.01
2018-10-16T06:36:50.853Z,13.16
2018-10-16T06:39:14.717Z,13.32
2018-10-16T06:41:38.725Z,13.96
2018-10-16T06:44:02.573Z,14.17
2018-10-16T06:46:26.519Z,14.10
2018-10-16T06:48:50.628Z,14.28
2018-10-16T06:51:14.244Z,14.39
2018-10-16T06:53:38.150Z,14.04
2018-10-16T06:56:02.037Z,13.64
2018-10-16T06:58:25.930Z,14.16
2018-10-16T07:00:49.889Z,14.60
2018-10-16T07:03:13.777Z,14.81
2018-10-16T07:05:37.668Z,14.66
2018-10-16T07:08:01.563Z,14.51
2018-10-16T07:10:25.529Z,14.40
2018-10-16T07:12:49.426Z,14.87
2018-10-16T07:15:13.342Z,15.06
2018-10-16T07:17:37.255Z,15.09
2018-10-16T07:20:01.125Z,15.19
2018-10-16T07:22:25.071Z,15.07
2018-10-16T07:24:48.911Z,15.33
2018-10-16T07:27:12.795Z,14.69
2018-10-16T07:29:36.964Z,14.94
2018-10-16T07:32:00.823Z,15.33
2018-10-16T07:34:24.757Z,15.73
2018-10-16T07:36:48.619Z,15.31
2018-10-16T07:39:13.571Z,15.31
2018-10-16T07:41:37.657Z,15.90
2018-10-16T07:44:01.564Z,15.96
2018-10-16T07:46:25.459Z,15.98
2018-10-16T07:48:49.387Z,15.00
2018-10-16T07:51:13.240Z,15.84
2018-10-16T07:53:37.143Z,15.81
2018-10-16T07:56:01.028Z,15.97
2018-10-16T07:58:24.951Z,16.29
2018-10-16T08:00:48.851Z,15.81
2018-10-16T08:03:12.740Z,16.27
2018-10-16T08:05:36.634Z,16.77
2018-10-16T08:08:00.528Z,16.76
2018-10-16T08:10:24.471Z,17.10
2018-10-16T08:12:48.373Z,17.21
2018-10-16T08:15:12.476Z,17.32
2018-10-16T08:17:36.436Z,16.84
2018-10-16T08:20:00.327Z,16.96
2018-10-16T08:22:24.159Z,17.36
2018-10-16T08:24:48.102Z,17.63
2018-10-16T08:27:11.994Z,17.47
2018-10-16T08:29:35.850Z,17.93
2018-10-16T08:31:59.768Z,17.68
2018-10-16T08:34:23.692Z,17.62
2018-10-16T08:36:47.685Z,17.82
2018-10-16T08:39:17.363Z,18.09
2018-10-16T08:41:51.453Z,18.33
2018-10-16T08:44:44.472Z,18.25
2018-10-16T08:47:19.784Z,18.59
2018-10-16T08:49:54.898Z,18.57
2018-10-16T08:52:18.775Z,18.45
2018-10-16T08:54:42.664Z,18.88
2018-10-16T08:57:06.558Z,19.16
2018-10-16T08:59:30.481Z,19.25
2018-10-16T09:01:54.345Z,19.32
2018-10-16T09:04:18.275Z,19.30
2018-10-16T09:06:42.183Z,19.52
2018-10-16T09:09:09.181Z,19.56
2018-10-16T09:11:33.041Z,19.81
2018-10-16T09:13:57.167Z,20.13
2018-10-16T09:16:21.472Z,20.12
2018-10-16T09:18:45.325Z,20.09
2018-10-16T09:21:09.247Z,20.45
2018-10-16T09:23:33.119Z,20.26
2018-10-16T09:25:57.040Z,20.70
2018-10-16T09:28:20.919Z,21.14
2018-10-16T09:30:44.844Z,21.25
2018-10-16T09:33:08.789Z,21.36
2018-10-16T09:35:32.649Z,21.72
2018-10-16T09:37:56.637Z,21.84
2018-10-16T09:40:21.074Z,21.89
2018-10-16T09:42:44.955Z,22.04
2018-10-16T09:45:09.949Z,22.04
2018-10-16T09:47:33.824Z,22.15
2018-10-16T09:49:57.739Z,22.63
2018-10-16T09:52:21.605Z,22.14
2018-10-16T09:54:45.482Z,22.60
2018-10-16T09:57:09.395Z,22.51
2018-10-16T09:59:33.301Z,23.27
2018-10-16T10:01:57.266Z,23.16
2018-10-16T10:04:21.192Z,23.07
2018-10-16T10:06:45.108Z,23.72
2018-10-16T10:09:10.853Z,24.18
2018-10-16T10:11:34.734Z,24.25
2018-10-16T10:13:58.650Z,24.29
2018-10-16T10:16:22.545Z,24.24
2018-10-16T10:18:46.572Z,24.94
2018-10-16T10:21:10.508Z,25.16
2018-10-16T10:23:34.388Z,25.28
2018-10-16T10:25:58.292Z,25.42
2018-10-16T10:28:22.224Z,25.80
2018-10-16T10:30:46.201Z,25.88
2018-10-16T10:33:10.058Z,25.79
2018-10-16T10:35:33.962Z,25.46
2018-10-16T10:38:31.482Z,25.00
2018-10-16T10:40:56.931Z,25.55
2018-10-16T10:43:34.353Z,26.65
2018-10-16T10:46:11.323Z,26.65
2018-10-16T10:48:31.278Z,26.62
2018-10-16T10:50:56.925Z,27.04
2018-10-16T10:53:22.181Z,27.28
2018-10-16T10:55:47.632Z,27.51
2018-10-16T10:58:13.069Z,27.73
2018-10-16T11:00:38.517Z,27.74
2018-10-16T11:03:15.904Z,28.10
2018-10-16T11:05:41.256Z,28.10
2018-10-16T11:08:20.368Z,27.55
2018-10-16T11:10:52.894Z,28.56
2018-10-16T11:13:09.869Z,27.55
2018-10-16T11:15:35.295Z,28.06
2018-10-16T11:18:00.718Z,29.03
2018-10-16T11:20:37.959Z,31.19
2018-10-16T11:23:17.816Z,33.29
2018-10-16T11:25:34.756Z,32.72
2018-10-16T11:28:00.196Z,34.61
2018-10-16T11:30:25.696Z,32.59
2018-10-16T11:32:51.169Z,32.51
2018-10-16T11:35:16.610Z,37.14
2018-10-16T11:37:42.141Z,37.75
2018-10-16T11:40:07.729Z,38.19
2018-10-16T11:42:33.178Z,38.52
2018-10-16T11:47:35.700Z,38.36
2018-10-16T11:50:01.219Z,35.06
2018-10-16T11:52:38.536Z,38.81
2018-10-16T11:55:03.987Z,37.68
2018-10-16T11:57:29.421Z,40.21
2018-10-16T11:59:54.863Z,39.79
2018-10-16T12:02:22.330Z,41.46
2018-10-16T12:04:47.547Z,40.64
2018-10-16T12:07:32.031Z,40.49
2018-10-16T12:09:57.498Z,42.26
2018-10-16T12:12:36.884Z,40.59
2018-10-16T12:14:54.671Z,37.91
2018-10-16T12:17:39.137Z,40.36
2018-10-16T12:20:23.271Z,41.26
2018-10-16T12:23:07.700Z,40.67
2018-10-16T12:25:44.964Z,43.66
2018-10-16T12:28:04.512Z,42.73
2018-10-16T12:30:29.966Z,42.99
2018-10-16T12:32:55.467Z,42.04
2018-10-16T12:35:20.888Z,43.71
2018-10-16T12:37:46.430Z,40.62
2018-10-16T12:40:11.988Z,41.71
2018-10-16T12:42:37.365Z,39.17
2018-10-16T12:45:03.038Z,42.04
2018-10-16T12:47:28.455Z,45.34
2018-10-16T12:49:53.910Z,45.47
2018-10-16T12:52:19.366Z,45.53
2018-10-16T12:54:44.794Z,43.55
2018-10-16T12:57:10.407Z,41.43
2018-10-16T12:59:35.825Z,42.55
2018-10-16T13:02:01.339Z,44.82
2018-10-16T13:04:26.777Z,41.61
2018-10-16T13:06:52.211Z,44.15
2018-10-16T13:09:17.731Z,45.41
2018-10-16T13:11:43.835Z,44.22
2018-10-16T13:14:09.330Z,44.26
2018-10-16T13:16:34.786Z,44.75
2018-10-16T13:19:00.241Z,46.03
2018-10-16T13:24:03.359Z,41.64
2018-10-16T13:26:28.845Z,41.09
2018-10-16T13:28:54.318Z,39.52
2018-10-16T13:31:19.748Z,42.71
2018-10-16T13:33:58.864Z,42.33
2018-10-16T13:36:16.741Z,43.84
2018-10-16T13:38:42.232Z,40.34
2018-10-16T13:41:19.208Z,39.23
2018-10-16T13:43:39.000Z,40.44
2018-10-16T13:46:04.493Z,44.37
2018-10-16T13:48:29.940Z,42.96
2018-10-16T13:50:55.421Z,42.93
2018-10-16T13:53:20.865Z,41.09
2018-10-16T13:55:46.308Z,42.97
2018-10-16T13:58:11.923Z,41.55
2018-10-16T14:00:37.194Z,37.50
2018-10-16T14:03:02.710Z,40.85
2018-10-16T14:05:28.177Z,41.03
2018-10-16T14:07:53.640Z,39.47
2018-10-16T14:10:19.421Z,40.31
2018-10-16T14:12:45.971Z,44.17
2018-10-16T14:15:12.316Z,44.72
2018-10-16T14:17:37.893Z,44.76
2018-10-16T14:20:03.346Z,44.25
2018-10-16T14:22:28.760Z,44.63
2018-10-16T14:24:54.215Z,41.85
2018-10-16T14:27:19.677Z,42.29
2018-10-16T14:29:45.148Z,43.61
2018-10-16T14:32:10.764Z,41.81
2018-10-16T14:34:36.266Z,44.49
2018-10-16T14:37:01.584Z,42.94
2018-10-16T14:39:27.018Z,42.52
2018-10-16T14:41:52.489Z,42.32
2018-10-16T14:44:17.939Z,43.16
2018-10-16T14:46:43.481Z,40.44
2018-10-16T14:49:08.961Z,38.94
2018-10-16T14:51:35.207Z,37.06
2018-10-16T14:56:38.099Z,34.41
2018-10-16T14:59:03.548Z,33.78
2018-10-16T15:01:29.013Z,32.54
2018-10-16T15:03:54.469Z,31.46
2018-10-16T15:06:20.014Z,31.09
2018-10-16T15:08:45.497Z,31.27
2018-10-16T15:11:22.731Z,31.42
2018-10-16T15:13:42.726Z,31.54
2018-10-16T15:16:08.335Z,30.96
2018-10-16T15:18:33.755Z,30.97
2018-10-16T15:20:59.221Z,30.65
2018-10-16T15:23:24.675Z,30.22
2018-10-16T15:25:50.082Z,30.14
2018-10-16T15:28:15.559Z,29.48
2018-10-16T15:30:41.016Z,29.99
2018-10-16T15:33:06.500Z,29.24
2018-10-16T15:35:31.955Z,29.26
2018-10-16T15:37:57.473Z,29.48
2018-10-16T15:40:22.885Z,29.43
2018-10-16T15:42:48.389Z,29.17
2018-10-16T15:45:14.207Z,28.94
2018-10-16T15:47:40.225Z,29.13
2018-10-16T15:50:06.100Z,28.98
2018-10-16T15:52:31.525Z,28.52
2018-10-16T15:55:11.377Z,28.52
2018-10-16T15:57:42.816Z,28.21
2018-10-16T16:00:01.016Z,28.12
2018-10-16T16:02:29.489Z,28.26
2018-10-16T16:04:54.966Z,27.93
2018-10-16T16:07:34.876Z,27.69
2018-10-16T16:09:51.609Z,27.60
2018-10-16T16:12:17.096Z,27.70
2018-10-16T16:14:42.546Z,27.53
2018-10-16T16:17:08.027Z,27.25
2018-10-16T16:19:33.528Z,27.21
2018-10-16T16:22:10.665Z,26.78
2018-10-16T16:24:30.012Z,26.57
2018-10-16T16:26:55.460Z,26.56
2018-10-16T16:29:20.971Z,26.61
2018-10-16T16:31:46.450Z,26.29
2018-10-16T16:34:12.044Z,26.23
2018-10-16T16:36:37.452Z,26.35
2018-10-16T16:39:02.950Z,26.08
2018-10-16T16:41:39.824Z,25.98
2018-10-16T16:46:37.070Z,25.62
2018-10-16T16:49:02.591Z,25.87
2018-10-16T16:51:28.031Z,25.88
2018-10-16T16:53:53.484Z,25.68
2018-10-16T16:56:30.110Z,25.61
2018-10-16T16:58:55.612Z,25.61
2018-10-16T17:01:21.021Z,25.57
2018-10-16T17:03:46.517Z,25.57
2018-10-16T17:06:12.010Z,25.39
2018-10-16T17:08:37.493Z,25.04
2018-10-16T17:11:03.022Z,25.06
2018-10-16T17:13:40.586Z,25.11
2018-10-16T17:16:06.085Z,25.11
2018-10-16T17:18:31.559Z,24.77
2018-10-16T17:20:57.057Z,24.63
2018-10-16T17:23:34.324Z,24.62
2018-10-16T17:25:53.850Z,24.33
2018-10-16T17:28:38.154Z,24.52
2018-10-16T17:31:03.653Z,24.36
2018-10-16T17:33:29.149Z,24.52
2018-10-16T17:35:54.686Z,24.28
2018-10-16T17:38:32.477Z,22.64
2018-10-16T17:40:58.041Z,22.64
2018-10-16T17:43:23.513Z,23.83
2018-10-16T17:45:48.984Z,23.86
2018-10-16T17:48:14.538Z,23.86
2018-10-16T17:50:39.968Z,23.70
2018-10-16T17:53:05.464Z,23.73
2018-10-16T17:58:08.557Z,23.75
2018-10-16T18:00:34.026Z,23.65
2018-10-16T18:02:59.527Z,23.27
2018-10-16T18:05:24.998Z,22.92
2018-10-16T18:07:50.474Z,23.24
2018-10-16T18:12:52.617Z,23.23
2018-10-16T18:15:18.102Z,23.17
2018-10-16T18:17:44.306Z,22.93
2018-10-16T18:20:11.004Z,23.09
2018-10-16T18:22:36.486Z,22.87
2018-10-16T18:30:13.864Z,22.86
2018-10-16T18:32:39.440Z,22.85
2018-10-16T18:35:05.003Z,22.47
2018-10-16T18:37:30.428Z,22.55
2018-10-16T18:39:56.004Z,22.45
2018-10-16T18:42:21.408Z,22.61
2018-10-16T18:44:46.875Z,22.50
2018-10-16T18:47:12.374Z,22.38
2018-10-16T18:49:37.870Z,22.15
2018-10-16T18:52:03.363Z,22.26
2018-10-16T18:54:28.983Z,22.38
2018-10-16T18:56:54.436Z,22.18
2018-10-16T18:59:19.855Z,22.15
2018-10-16T19:01:45.303Z,22.08
2018-10-16T19:04:11.308Z,22.02
2018-10-16T19:06:36.808Z,21.84
2018-10-16T19:11:39.691Z,21.85
2018-10-16T19:14:05.172Z,21.87
2018-10-16T19:16:30.643Z,21.98
2018-10-16T19:18:56.175Z,22.03
2018-10-16T19:21:21.640Z,22.05
2018-10-16T19:23:47.129Z,21.97
2018-10-16T19:26:12.577Z,21.88
2018-10-16T19:28:38.078Z,21.93
2018-10-16T19:31:03.502Z,22.00
2018-10-16T19:33:28.977Z,21.72
2018-10-16T19:35:54.489Z,21.85
2018-10-16T19:43:37.982Z,21.48
2018-10-16T19:46:03.465Z,21.82
2018-10-16T19:48:28.942Z,21.74
2018-10-16T19:53:30.847Z,21.59
2018-10-16T19:56:10.037Z,21.23
2018-10-16T20:01:03.868Z,21.44
2018-10-16T20:03:29.378Z,21.73
2018-10-16T20:05:54.866Z,21.52
2018-10-16T20:08:20.308Z,21.42
2018-10-16T20:10:45.802Z,21.28
2018-10-16T20:13:11.266Z,21.40
2018-10-16T20:15:36.714Z,21.15
2018-10-16T20:18:02.196Z,21.35
2018-10-16T20:20:27.634Z,21.09
2018-10-16T20:22:53.058Z,21.12
2018-10-16T20:25:18.655Z,21.14
2018-10-16T20:27:44.002Z,21.23
2018-10-16T20:30:10.646Z,21.13
2018-10-16T20:35:13.858Z,21.12
2018-10-16T20:37:55.835Z,21.06
2018-10-16T20:42:47.896Z,21.23
2018-10-16T20:45:13.374Z,21.23
2018-10-16T20:47:50.719Z,21.25
2018-10-16T20:50:16.162Z,21.07
2018-10-16T20:52:41.638Z,21.02
2018-10-16T20:55:18.988Z,21.13
2018-10-16T20:57:38.649Z,20.98
2018-10-16T21:00:04.409Z,20.95
2018-10-16T21:02:29.881Z,21.12
2018-10-16T21:04:55.518Z,20.98
2018-10-16T21:07:20.985Z,20.97
2018-10-16T21:09:58.107Z,20.81
2018-10-16T21:12:17.595Z,20.73
2018-10-16T21:14:43.057Z,20.70
2018-10-16T21:17:08.526Z,20.83
2018-10-16T21:19:34.039Z,20.68
2018-10-16T21:21:59.420Z,20.76
2018-10-16T21:24:36.693Z,20.42
2018-10-16T21:27:15.478Z,20.55
2018-10-16T21:29:40.997Z,20.51
2018-10-16T21:32:07.253Z,20.25
2018-10-16T21:34:32.710Z,20.43
2018-10-16T21:36:58.232Z,19.21
2018-10-16T21:39:23.618Z,19.61
2018-10-16T21:41:49.054Z,19.97
2018-10-16T21:46:52.464Z,19.89
2018-10-16T21:49:17.915Z,19.92
2018-10-16T21:51:43.622Z,20.00
2018-10-16T21:54:09.123Z,19.86
2018-10-16T21:56:34.555Z,19.74
2018-10-16T21:59:00.061Z,18.77
2018-10-16T22:01:44.172Z,18.91
2018-10-16T22:04:09.631Z,19.33
2018-10-16T22:06:35.163Z,19.78
2018-10-16T22:09:00.592Z,19.64
2018-10-16T22:11:26.254Z,19.45
2018-10-16T22:14:03.280Z,19.35
2018-10-16T22:16:23.389Z,19.50
2018-10-16T22:18:48.990Z,19.64
2018-10-16T22:21:14.457Z,19.37
2018-10-16T22:23:39.942Z,19.27
2018-10-16T22:26:05.379Z,19.21
2018-10-16T22:31:08.411Z,19.37
2018-10-16T22:33:33.787Z,19.28
2018-10-16T22:36:11.045Z,19.26
2018-10-16T22:38:41.936Z,18.95
2018-10-16T22:41:01.973Z,18.72
2018-10-16T22:43:27.455Z,18.69
2018-10-16T22:45:52.917Z,18.86
2018-10-16T22:48:18.367Z,18.70
2018-10-16T22:51:02.789Z,18.91
2018-10-16T22:53:42.858Z,18.70
2018-10-16T22:58:52.098Z,18.69
2018-10-16T23:01:09.027Z,18.62
2018-10-16T23:03:34.427Z,18.68
2018-10-16T23:05:59.863Z,18.63
2018-10-16T23:08:25.291Z,18.69
2018-10-16T23:10:50.808Z,18.65
2018-10-16T23:13:16.239Z,18.62
2018-10-16T23:18:19.227Z,18.40
2018-10-16T23:23:22.236Z,18.61
2018-10-16T23:28:24.068Z,18.66
2018-10-16T23:30:49.503Z,18.59
2018-10-16T23:33:14.912Z,18.44
2018-10-16T23:35:40.354Z,18.34
2018-10-16T23:38:06.082Z,18.34
2018-10-16T23:40:43.327Z,18.39
2018-10-16T23:43:03.479Z,18.29
2018-10-16T23:45:28.855Z,18.41
2018-10-16T23:47:54.328Z,17.78
2018-10-16T23:50:19.771Z,17.54
2018-10-16T23:55:22.074Z,17.96
2018-10-16T23:57:47.642Z,18.01
